createdAt,value
2018-02-25T00:00:29.001Z,2.95
2018-02-25T00:01:18.059Z,2.91
2018-02-25T00:02:07.152Z,2.96
2018-02-25T00:02:56.229Z,2.92
2018-02-25T00:03:45.507Z,2.78
2018-02-25T00:04:34.567Z,2.67
2018-02-25T00:05:23.635Z,2.69
2018-02-25T00:06:12.746Z,2.56
2018-02-25T00:07:01.865Z,2.72
2018-02-25T00:07:50.912Z,2.81
2018-02-25T00:08:39.966Z,2.71
2018-02-25T00:09:28.998Z,2.76
2018-02-25T00:10:18.054Z,2.91
2018-02-25T00:11:07.220Z,2.88
2018-02-25T00:11:56.250Z,2.83
2018-02-25T00:12:45.349Z,2.72
2018-02-25T00:13:34.366Z,2.66
2018-02-25T00:14:23.429Z,2.70
2018-02-25T00:15:12.482Z,2.50
2018-02-25T00:16:01.538Z,2.57
2018-02-25T00:16:50.617Z,2.64
2018-02-25T00:17:39.659Z,2.50
2018-02-25T00:18:28.702Z,2.46
2018-02-25T00:19:17.730Z,2.42
2018-02-25T00:20:06.785Z,2.55
2018-02-25T00:20:55.836Z,2.69
2018-02-25T00:21:44.918Z,2.45
2018-02-25T00:22:34.206Z,2.45
2018-02-25T00:23:23.240Z,2.28
2018-02-25T00:24:12.300Z,2.40
2018-02-25T00:25:01.343Z,2.47
2018-02-25T00:25:50.378Z,2.58
2018-02-25T00:26:39.433Z,2.61
2018-02-25T00:27:28.568Z,2.63
2018-02-25T00:28:17.632Z,2.48
2018-02-25T00:29:06.680Z,2.52
2018-02-25T00:29:55.731Z,2.30
2018-02-25T00:30:44.813Z,2.37
2018-02-25T00:31:33.877Z,2.23
2018-02-25T00:32:22.941Z,2.31
2018-02-25T00:33:12.043Z,2.33
2018-02-25T00:34:01.082Z,2.26
2018-02-25T00:34:50.140Z,2.15
2018-02-25T00:35:39.202Z,2.22
2018-02-25T00:36:28.261Z,2.12
2018-02-25T00:37:17.340Z,2.12
2018-02-25T00:38:06.416Z,2.10
2018-02-25T00:38:55.457Z,2.11
2018-02-25T00:39:44.491Z,2.06
2018-02-25T00:40:33.551Z,2.14
2018-02-25T00:41:25.564Z,2.22
2018-02-25T00:42:14.616Z,2.32
2018-02-25T00:43:03.676Z,2.40
2018-02-25T00:43:52.820Z,2.30
2018-02-25T00:44:41.893Z,2.19
2018-02-25T00:45:31.006Z,2.26
2018-02-25T00:46:20.073Z,2.18
2018-02-25T00:47:09.198Z,2.27
2018-02-25T00:47:58.216Z,2.32
2018-02-25T00:48:47.252Z,2.39
2018-02-25T00:49:36.339Z,2.37
2018-02-25T00:50:25.397Z,2.39
2018-02-25T00:51:14.450Z,2.41
2018-02-25T00:52:03.513Z,2.42
2018-02-25T00:52:52.555Z,2.28
2018-02-25T00:53:41.602Z,2.27
2018-02-25T00:54:30.661Z,2.26
2018-02-25T00:55:19.750Z,2.25
2018-02-25T00:56:08.797Z,2.18
2018-02-25T00:56:57.866Z,2.21
2018-02-25T00:57:46.916Z,2.28
2018-02-25T00:58:35.958Z,2.17
2018-02-25T00:59:25.129Z,2.05
2018-02-25T01:00:14.231Z,2.13
2018-02-25T01:01:03.642Z,2.19
2018-02-25T01:01:52.679Z,2.22
2018-02-25T01:02:41.728Z,2.20
2018-02-25T01:03:30.771Z,2.09
2018-02-25T01:04:19.824Z,2.08
2018-02-25T01:05:08.929Z,2.06
2018-02-25T01:05:57.980Z,2.03
2018-02-25T01:06:47.026Z,2.12
2018-02-25T01:07:36.080Z,2.04
2018-02-25T01:08:25.157Z,2.04
2018-02-25T01:09:14.199Z,1.99
2018-02-25T01:10:03.250Z,1.88
2018-02-25T01:10:52.348Z,1.93
2018-02-25T01:11:41.392Z,2.05
2018-02-25T01:12:30.448Z,1.86
2018-02-25T01:13:19.488Z,1.86
2018-02-25T01:14:08.531Z,1.84
2018-02-25T01:14:57.616Z,1.85
2018-02-25T01:15:46.706Z,2.00
2018-02-25T01:16:35.769Z,1.99
2018-02-25T01:17:24.813Z,1.94
2018-02-25T01:18:13.860Z,1.99
2018-02-25T01:19:02.919Z,1.91
2018-02-25T01:19:51.994Z,1.95
2018-02-25T01:20:41.040Z,1.93
2018-02-25T01:21:30.179Z,1.76
2018-02-25T01:22:19.232Z,1.71
2018-02-25T01:23:08.282Z,1.71
2018-02-25T01:23:57.324Z,1.86
2018-02-25T01:24:46.423Z,1.91
2018-02-25T01:25:35.462Z,1.91
2018-02-25T01:26:24.518Z,1.96
2018-02-25T01:27:13.624Z,1.81
2018-02-25T01:28:02.673Z,1.64
2018-02-25T01:28:51.725Z,1.73
2018-02-25T01:29:40.764Z,1.64
2018-02-25T01:30:29.813Z,1.57
2018-02-25T01:31:18.872Z,1.41
2018-02-25T01:32:07.970Z,1.30
2018-02-25T01:32:57.075Z,1.29
2018-02-25T01:33:46.107Z,1.45
2018-02-25T01:34:35.137Z,1.45
2018-02-25T01:35:24.183Z,1.47
2018-02-25T01:36:13.226Z,1.57
2018-02-25T01:37:02.276Z,1.56
2018-02-25T01:37:51.321Z,1.60
2018-02-25T01:38:40.690Z,1.67
2018-02-25T01:39:29.718Z,1.59
2018-02-25T01:40:18.769Z,1.43
2018-02-25T01:41:07.811Z,1.33
2018-02-25T01:41:56.853Z,1.46
2018-02-25T01:42:45.917Z,1.44
2018-02-25T01:43:35.024Z,1.44
2018-02-25T01:44:24.099Z,1.41
2018-02-25T01:45:13.134Z,1.37
2018-02-25T01:46:02.171Z,1.41
2018-02-25T01:46:51.220Z,1.45
2018-02-25T01:47:40.269Z,1.32
2018-02-25T01:48:29.308Z,1.22
2018-02-25T01:49:18.415Z,1.25
2018-02-25T01:50:07.459Z,1.27
2018-02-25T01:51:05.294Z,1.27
2018-02-25T01:51:54.343Z,1.22
2018-02-25T01:52:43.558Z,1.26
2018-02-25T01:53:32.605Z,1.27
2018-02-25T01:54:21.667Z,1.36
2018-02-25T01:55:10.712Z,1.30
2018-02-25T01:55:59.760Z,1.26
2018-02-25T01:56:48.826Z,1.32
2018-02-25T01:57:37.859Z,1.37
2018-02-25T01:58:29.985Z,1.49
2018-02-25T01:59:19.036Z,1.49
2018-02-25T02:00:08.115Z,1.58
2018-02-25T02:00:57.182Z,1.64
2018-02-25T02:01:46.224Z,1.56
2018-02-25T02:02:35.271Z,1.55
2018-02-25T02:03:24.350Z,1.56
2018-02-25T02:04:13.455Z,1.53
2018-02-25T02:05:02.505Z,1.60
2018-02-25T02:05:51.556Z,1.60
2018-02-25T02:06:40.672Z,1.29
2018-02-25T02:07:29.728Z,1.33
2018-02-25T02:08:18.783Z,1.26
2018-02-25T02:09:07.831Z,1.31
2018-02-25T02:09:56.866Z,1.34
2018-02-25T02:10:45.913Z,1.26
2018-02-25T02:11:34.972Z,1.28
2018-02-25T02:12:24.100Z,1.34
2018-02-25T02:13:13.156Z,1.31
2018-02-25T02:14:02.199Z,1.23
2018-02-25T02:14:51.238Z,1.08
2018-02-25T02:15:40.293Z,1.05
2018-02-25T02:16:29.358Z,1.08
2018-02-25T02:17:18.506Z,1.04
2018-02-25T02:18:07.550Z,1.13
2018-02-25T02:18:56.581Z,1.03
2018-02-25T02:19:45.620Z,1.05
2018-02-25T02:20:34.698Z,1.23
2018-02-25T02:21:23.762Z,1.28
2018-02-25T02:22:12.811Z,1.35
2018-02-25T02:23:02.081Z,1.41
2018-02-25T02:23:51.143Z,1.29
2018-02-25T02:24:40.205Z,1.25
2018-02-25T02:25:29.261Z,1.29
2018-02-25T02:26:18.311Z,1.13
2018-02-25T02:27:07.350Z,1.14
2018-02-25T02:27:56.455Z,1.20
2018-02-25T02:28:45.561Z,1.30
2018-02-25T02:29:34.619Z,1.22
2018-02-25T02:30:23.676Z,1.12
2018-02-25T02:31:12.801Z,1.13
2018-02-25T02:32:01.852Z,0.98
2018-02-25T02:32:50.929Z,1.06
2018-02-25T02:33:39.972Z,1.07
2018-02-25T02:34:29.071Z,1.07
2018-02-25T02:35:18.120Z,1.05
2018-02-25T02:36:07.167Z,1.12
2018-02-25T02:36:56.260Z,0.97
2018-02-25T02:37:45.323Z,1.03
2018-02-25T02:38:34.371Z,1.14
2018-02-25T02:39:23.433Z,1.04
2018-02-25T02:40:12.499Z,1.01
2018-02-25T02:41:01.578Z,0.92
2018-02-25T02:41:50.978Z,1.04
2018-02-25T02:42:40.034Z,1.06
2018-02-25T02:43:29.086Z,0.98
2018-02-25T02:44:18.285Z,1.01
2018-02-25T02:45:07.344Z,0.98
2018-02-25T02:45:56.405Z,1.11
2018-02-25T02:46:45.452Z,1.08
2018-02-25T02:47:34.513Z,0.96
2018-02-25T02:48:23.556Z,0.81
2018-02-25T02:49:12.615Z,0.84
2018-02-25T02:50:01.711Z,0.92
2018-02-25T02:50:50.768Z,0.96
2018-02-25T02:51:39.865Z,0.96
2018-02-25T02:52:28.906Z,0.90
2018-02-25T02:53:17.973Z,1.01
2018-02-25T02:54:07.089Z,1.01
2018-02-25T02:54:56.162Z,0.96
2018-02-25T02:55:45.214Z,0.90
2018-02-25T02:56:34.427Z,0.84
2018-02-25T02:57:23.698Z,0.75
2018-02-25T02:58:12.748Z,0.77
2018-02-25T02:59:01.801Z,0.75
2018-02-25T02:59:50.843Z,0.64
2018-02-25T03:00:39.916Z,0.78
2018-02-25T03:01:29.020Z,0.83
2018-02-25T03:02:18.066Z,0.83
2018-02-25T03:03:07.176Z,0.89
2018-02-25T03:03:56.244Z,0.78
2018-02-25T03:04:45.483Z,0.76
2018-02-25T03:05:34.531Z,0.89
2018-02-25T03:06:23.573Z,0.83
2018-02-25T03:07:12.639Z,0.81
2018-02-25T03:08:01.696Z,0.90
2018-02-25T03:08:50.749Z,0.95
2018-02-25T03:09:39.797Z,0.95
2018-02-25T03:10:28.895Z,1.03
2018-02-25T03:11:17.953Z,0.76
2018-02-25T03:12:06.985Z,0.77
2018-02-25T03:12:56.064Z,0.65
2018-02-25T03:13:45.127Z,0.79
2018-02-25T03:14:34.173Z,0.86
2018-02-25T03:15:23.245Z,0.85
2018-02-25T03:16:12.313Z,0.74
2018-02-25T03:17:01.358Z,0.68
2018-02-25T03:17:50.411Z,0.79
2018-02-25T03:18:39.494Z,0.68
2018-02-25T03:19:28.535Z,0.51
2018-02-25T03:20:17.587Z,0.51
2018-02-25T03:21:06.657Z,0.39
2018-02-25T03:21:55.727Z,0.45
2018-02-25T03:22:44.770Z,0.43
2018-02-25T03:23:33.820Z,0.48
2018-02-25T03:24:22.973Z,0.53
2018-02-25T03:25:12.031Z,0.51
2018-02-25T03:26:01.080Z,0.61
2018-02-25T03:26:50.114Z,0.53
2018-02-25T03:27:39.161Z,0.51
2018-02-25T03:28:28.219Z,0.39
2018-02-25T03:29:17.299Z,0.54
2018-02-25T03:30:07.364Z,0.51
2018-02-25T03:30:56.414Z,0.65
2018-02-25T03:31:45.449Z,0.59
2018-02-25T03:32:34.537Z,0.47
2018-02-25T03:33:23.587Z,0.42
2018-02-25T03:34:12.678Z,0.47
2018-02-25T03:35:01.724Z,0.51
2018-02-25T03:35:50.780Z,0.52
2018-02-25T03:36:39.835Z,0.60
2018-02-25T03:37:28.889Z,0.60
2018-02-25T03:38:17.968Z,0.57
2018-02-25T03:39:07.006Z,0.59
2018-02-25T03:39:56.062Z,0.57
2018-02-25T03:40:45.111Z,0.49
2018-02-25T03:41:34.161Z,0.57
2018-02-25T03:42:23.282Z,0.48
2018-02-25T03:43:12.333Z,0.53
2018-02-25T03:44:01.391Z,0.52
2018-02-25T03:44:50.437Z,0.54
2018-02-25T03:45:39.484Z,0.58
2018-02-25T03:46:28.715Z,0.63
2018-02-25T03:47:17.757Z,0.49
2018-02-25T03:48:07.082Z,0.57
2018-02-25T03:48:56.138Z,0.57
2018-02-25T03:49:45.190Z,0.65
2018-02-25T03:50:34.245Z,0.46
2018-02-25T03:51:23.296Z,0.48
2018-02-25T03:52:12.376Z,0.41
2018-02-25T03:53:01.411Z,0.35
2018-02-25T03:53:50.439Z,0.38
2018-02-25T03:54:39.501Z,0.37
2018-02-25T03:55:28.549Z,0.37
2018-02-25T03:56:17.658Z,0.31
2018-02-25T03:57:06.710Z,0.33
2018-02-25T03:57:55.794Z,0.38
2018-02-25T03:58:44.835Z,0.39
2018-02-25T03:59:36.743Z,0.41
2018-02-25T04:00:25.795Z,0.44
2018-02-25T04:01:14.850Z,0.58
2018-02-25T04:02:04.014Z,0.52
2018-02-25T04:02:53.071Z,0.56
2018-02-25T04:03:42.418Z,0.58
2018-02-25T04:04:31.464Z,0.62
2018-02-25T04:05:20.505Z,0.42
2018-02-25T04:06:09.575Z,0.47
2018-02-25T04:06:58.672Z,0.52
2018-02-25T04:07:47.830Z,0.57
2018-02-25T04:08:36.890Z,0.47
2018-02-25T04:09:25.945Z,0.57
2018-02-25T04:10:14.998Z,0.47
2018-02-25T04:11:04.047Z,0.54
2018-02-25T04:11:53.094Z,0.58
2018-02-25T04:12:42.139Z,0.72
2018-02-25T04:13:31.230Z,0.77
2018-02-25T04:14:20.269Z,0.61
2018-02-25T04:15:09.329Z,0.66
2018-02-25T04:15:58.378Z,0.70
2018-02-25T04:16:47.424Z,0.74
2018-02-25T04:17:36.505Z,0.66
2018-02-25T04:18:25.557Z,0.57
2018-02-25T04:19:14.604Z,0.63
2018-02-25T04:20:03.665Z,0.61
2018-02-25T04:20:52.745Z,0.68
2018-02-25T04:21:41.786Z,0.78
2018-02-25T04:22:30.833Z,0.77
2018-02-25T04:23:20.132Z,0.68
2018-02-25T04:24:09.262Z,0.75
2018-02-25T04:24:58.463Z,0.77
2018-02-25T04:25:47.513Z,0.73
2018-02-25T04:26:36.560Z,0.63
2018-02-25T04:27:25.953Z,0.51
2018-02-25T04:28:14.991Z,0.44
2018-02-25T04:29:04.052Z,0.43
2018-02-25T04:29:53.142Z,0.33
2018-02-25T04:30:42.180Z,0.35
2018-02-25T04:31:31.301Z,0.44
2018-02-25T04:32:20.367Z,0.45
2018-02-25T04:33:09.495Z,0.35
2018-02-25T04:33:58.558Z,0.31
2018-02-25T04:34:47.640Z,0.42
2018-02-25T04:35:36.689Z,0.39
2018-02-25T04:36:25.736Z,0.35
2018-02-25T04:37:14.780Z,0.28
2018-02-25T04:38:03.833Z,0.29
2018-02-25T04:38:52.911Z,0.40
2018-02-25T04:39:41.962Z,0.46
2018-02-25T04:40:31.008Z,0.60
2018-02-25T04:41:20.047Z,0.52
2018-02-25T04:42:09.133Z,0.46
2018-02-25T04:42:58.183Z,0.27
2018-02-25T04:43:47.231Z,0.32
2018-02-25T04:44:36.471Z,0.48
2018-02-25T04:45:25.510Z,0.52
2018-02-25T04:46:14.554Z,0.53
2018-02-25T04:47:03.648Z,0.48
2018-02-25T04:47:52.694Z,0.55
2018-02-25T04:48:41.749Z,0.59
2018-02-25T04:49:30.798Z,0.63
2018-02-25T04:50:19.851Z,0.56
2018-02-25T04:51:08.922Z,0.35
2018-02-25T04:51:57.976Z,0.39
2018-02-25T04:52:47.135Z,0.27
2018-02-25T04:53:36.407Z,0.21
2018-02-25T04:54:25.460Z,0.14
2018-02-25T04:55:14.514Z,0.10
2018-02-25T04:56:03.588Z,0.17
2018-02-25T04:56:52.710Z,0.19
2018-02-25T04:57:41.757Z,0.29
2018-02-25T04:58:30.809Z,0.40
2018-02-25T04:59:19.925Z,0.39
2018-02-25T05:00:09.011Z,0.49
2018-02-25T05:00:58.290Z,0.54
2018-02-25T05:01:47.338Z,0.56
2018-02-25T05:02:36.394Z,0.53
2018-02-25T05:03:25.440Z,0.52
2018-02-25T05:04:14.499Z,0.59
2018-02-25T05:05:03.546Z,0.48
2018-02-25T05:05:52.618Z,0.53
2018-02-25T05:06:41.673Z,0.39
2018-02-25T05:07:30.724Z,0.44
2018-02-25T05:08:19.776Z,0.48
2018-02-25T05:09:08.814Z,0.58
2018-02-25T05:09:57.864Z,0.55
2018-02-25T05:10:46.919Z,0.56
2018-02-25T05:11:36.026Z,0.62
2018-02-25T05:12:25.082Z,0.63
2018-02-25T05:13:14.218Z,0.70
2018-02-25T05:14:03.259Z,0.70
2018-02-25T05:14:52.305Z,0.76
2018-02-25T05:15:41.371Z,0.85
2018-02-25T05:16:30.617Z,0.84
2018-02-25T05:17:19.659Z,0.89
2018-02-25T05:18:08.801Z,0.87
2018-02-25T05:18:57.865Z,0.90
2018-02-25T05:19:46.925Z,0.92
2018-02-25T05:20:35.991Z,0.98
2018-02-25T05:21:25.042Z,1.03
2018-02-25T05:22:14.114Z,1.05
2018-02-25T05:23:03.181Z,1.04
2018-02-25T05:23:52.288Z,1.01
2018-02-25T05:24:41.338Z,1.08
2018-02-25T05:25:30.424Z,1.07
2018-02-25T05:26:19.463Z,1.15
2018-02-25T05:27:08.507Z,1.19
2018-02-25T05:27:57.559Z,1.14
2018-02-25T05:28:46.627Z,1.16
2018-02-25T05:29:35.680Z,1.30
2018-02-25T05:30:24.731Z,1.34
2018-02-25T05:31:13.839Z,1.35
2018-02-25T05:32:02.918Z,1.38
2018-02-25T05:32:51.992Z,1.34
2018-02-25T05:33:41.036Z,1.29
2018-02-25T05:34:30.083Z,1.28
2018-02-25T05:35:19.132Z,1.24
2018-02-25T05:36:08.277Z,1.23
2018-02-25T05:36:57.337Z,1.14
2018-02-25T05:38:00.668Z,1.15
2018-02-25T05:38:49.841Z,1.27
2018-02-25T05:39:38.951Z,1.35
2018-02-25T05:40:28.008Z,1.34
2018-02-25T05:41:17.306Z,1.42
2018-02-25T05:42:06.362Z,1.40
2018-02-25T05:42:55.394Z,1.40
2018-02-25T05:43:44.463Z,1.38
2018-02-25T05:44:33.521Z,1.36
2018-02-25T05:45:22.572Z,1.36
2018-02-25T05:46:11.638Z,1.37
2018-02-25T05:47:00.717Z,1.33
2018-02-25T05:47:49.778Z,1.36
2018-02-25T05:48:38.827Z,1.09
2018-02-25T05:49:27.909Z,1.08
2018-02-25T05:50:16.964Z,0.71
2018-02-25T05:51:06.028Z,0.48
2018-02-25T05:51:58.146Z,0.35
2018-02-25T05:52:47.260Z,0.52
2018-02-25T05:53:36.336Z,0.44
2018-02-25T05:54:25.390Z,0.52
2018-02-25T05:55:14.428Z,0.46
2018-02-25T05:56:03.475Z,0.48
2018-02-25T05:56:52.512Z,0.38
2018-02-25T05:57:41.670Z,0.37
2018-02-25T05:58:30.718Z,0.32
2018-02-25T05:59:19.764Z,0.24
2018-02-25T06:00:08.816Z,0.15
2018-02-25T06:00:57.868Z,0.22
2018-02-25T06:01:46.918Z,0.02
2018-02-25T06:02:35.967Z,-0.13
2018-02-25T06:03:25.438Z,-0.19
2018-02-25T06:04:14.565Z,-0.31
2018-02-25T06:05:03.702Z,-0.30
2018-02-25T06:05:52.809Z,-0.23
2018-02-25T06:06:41.866Z,-0.20
2018-02-25T06:07:30.945Z,-0.16
2018-02-25T06:08:20.037Z,-0.28
2018-02-25T06:09:09.130Z,-0.20
2018-02-25T06:09:58.200Z,-0.14
2018-02-25T06:10:47.263Z,-0.30
2018-02-25T06:11:36.337Z,-0.24
2018-02-25T06:12:25.409Z,-0.33
2018-02-25T06:13:14.469Z,-0.36
2018-02-25T06:14:03.575Z,-0.44
2018-02-25T06:14:52.644Z,-0.52
2018-02-25T06:15:41.791Z,-0.59
2018-02-25T06:16:30.842Z,-0.68
2018-02-25T06:17:19.910Z,-0.60
2018-02-25T06:18:08.970Z,-0.48
2018-02-25T06:18:58.053Z,-0.49
2018-02-25T06:19:47.124Z,-0.36
2018-02-25T06:20:36.210Z,-0.53
2018-02-25T06:21:25.476Z,-0.54
2018-02-25T06:22:14.552Z,-0.41
2018-02-25T06:23:03.749Z,-0.54
2018-02-25T06:23:52.826Z,-0.64
2018-02-25T06:24:41.902Z,-0.61
2018-02-25T06:25:30.969Z,-0.56
2018-02-25T06:26:20.020Z,-0.59
2018-02-25T06:27:09.076Z,-0.71
2018-02-25T06:27:58.147Z,-0.77
2018-02-25T06:28:47.269Z,-0.67
2018-02-25T06:29:36.338Z,-0.48
2018-02-25T06:30:25.423Z,-0.61
2018-02-25T06:31:14.478Z,-0.63
2018-02-25T06:32:03.541Z,-0.61
2018-02-25T06:32:52.586Z,-0.70
2018-02-25T06:33:41.642Z,-0.78
2018-02-25T06:34:30.699Z,-0.78
2018-02-25T06:35:19.797Z,-0.70
2018-02-25T06:36:08.956Z,-0.75
2018-02-25T06:36:58.015Z,-0.75
2018-02-25T06:37:47.082Z,-0.69
2018-02-25T06:38:36.140Z,-0.55
2018-02-25T06:39:25.216Z,-0.47
2018-02-25T06:40:14.269Z,-0.53
2018-02-25T06:41:03.317Z,-0.60
2018-02-25T06:41:52.599Z,-0.56
2018-02-25T06:42:41.716Z,-0.58
2018-02-25T06:43:30.804Z,-0.59
2018-02-25T06:44:19.866Z,-0.73
2018-02-25T06:45:08.919Z,-0.54
2018-02-25T06:45:57.991Z,-0.68
2018-02-25T06:46:47.058Z,-0.53
2018-02-25T06:47:36.111Z,0.24
2018-02-25T06:48:25.375Z,0.21
2018-02-25T06:49:14.413Z,0.42
2018-02-25T06:50:03.469Z,0.55
2018-02-25T06:50:52.524Z,0.55
2018-02-25T06:51:41.594Z,0.37
2018-02-25T06:52:30.826Z,0.33
2018-02-25T06:53:19.879Z,0.52
2018-02-25T06:54:08.995Z,0.56
2018-02-25T06:54:58.078Z,0.38
2018-02-25T06:55:47.173Z,0.31
2018-02-25T06:56:36.243Z,0.26
2018-02-25T06:57:25.280Z,0.17
2018-02-25T06:58:14.322Z,-0.01
2018-02-25T06:59:03.401Z,-0.14
2018-02-25T06:59:52.627Z,-0.23
2018-02-25T07:00:41.692Z,-0.22
2018-02-25T07:01:30.750Z,-0.27
2018-02-25T07:02:20.493Z,-0.19
2018-02-25T07:03:09.538Z,-0.11
2018-02-25T07:03:58.605Z,-0.15
2018-02-25T07:04:47.661Z,-0.26
2018-02-25T07:05:36.762Z,-0.24
2018-02-25T07:06:25.830Z,-0.20
2018-02-25T07:07:14.910Z,-0.18
2018-02-25T07:08:03.960Z,-0.08
2018-02-25T07:08:53.020Z,-0.19
2018-02-25T07:09:42.108Z,-0.16
2018-02-25T07:10:31.191Z,-0.37
2018-02-25T07:11:20.471Z,-0.55
2018-02-25T07:12:09.542Z,-0.67
2018-02-25T07:12:58.773Z,-0.53
2018-02-25T07:13:47.886Z,-0.49
2018-02-25T07:14:37.150Z,-0.49
2018-02-25T07:15:26.246Z,-0.55
2018-02-25T07:16:15.309Z,-0.62
2018-02-25T07:17:04.363Z,-0.65
2018-02-25T07:17:53.425Z,-0.53
2018-02-25T07:18:42.581Z,-0.42
2018-02-25T07:19:31.646Z,-0.35
2018-02-25T07:20:20.695Z,-0.30
2018-02-25T07:21:09.758Z,-0.28
2018-02-25T07:21:58.807Z,-0.25
2018-02-25T07:22:47.859Z,-0.28
2018-02-25T07:23:36.902Z,-0.33
2018-02-25T07:24:25.993Z,-0.31
2018-02-25T07:25:15.061Z,-0.33
2018-02-25T07:26:04.119Z,-0.37
2018-02-25T07:26:53.182Z,-0.45
2018-02-25T07:27:42.244Z,-0.52
2018-02-25T07:28:31.300Z,-0.51
2018-02-25T07:29:20.372Z,-0.58
2018-02-25T07:30:09.952Z,-0.59
2018-02-25T07:30:59.004Z,-0.69
2018-02-25T07:31:48.081Z,-0.53
2018-02-25T07:32:37.143Z,-0.52
2018-02-25T07:33:26.275Z,-0.39
2018-02-25T07:34:15.343Z,-0.39
2018-02-25T07:35:04.406Z,-0.36
2018-02-25T07:35:53.461Z,-0.37
2018-02-25T07:36:42.533Z,-0.33
2018-02-25T07:37:31.578Z,-0.29
2018-02-25T07:38:20.634Z,-0.22
2018-02-25T07:39:09.805Z,-0.10
2018-02-25T07:39:58.903Z,-0.16
2018-02-25T07:40:47.969Z,-0.29
2018-02-25T07:41:37.068Z,-0.37
2018-02-25T07:42:26.251Z,-0.38
2018-02-25T07:43:15.325Z,-0.44
2018-02-25T07:44:04.468Z,-0.32
2018-02-25T07:44:53.579Z,-0.47
2018-02-25T07:45:42.858Z,-0.64
2018-02-25T07:46:31.924Z,-0.63
2018-02-25T07:47:21.005Z,-0.76
2018-02-25T07:48:11.348Z,-0.55
2018-02-25T07:49:00.407Z,-0.56
2018-02-25T07:49:49.509Z,-0.69
2018-02-25T07:50:38.548Z,-0.83
2018-02-25T07:51:27.674Z,-0.83
2018-02-25T07:52:16.774Z,-0.79
2018-02-25T07:53:05.827Z,-0.81
2018-02-25T07:53:56.863Z,-0.78
2018-02-25T07:54:45.908Z,-0.88
2018-02-25T07:55:34.985Z,-0.88
2018-02-25T07:56:24.047Z,-0.85
2018-02-25T07:57:13.238Z,-0.69
2018-02-25T07:58:02.317Z,-0.52
2018-02-25T07:58:51.377Z,-0.48
2018-02-25T07:59:40.440Z,-0.54
2018-02-25T08:00:29.505Z,-0.45
2018-02-25T08:01:18.669Z,-0.48
2018-02-25T08:02:07.740Z,-0.50
2018-02-25T08:02:59.923Z,-0.50
2018-02-25T08:03:48.986Z,-0.45
2018-02-25T08:04:38.031Z,-0.39
2018-02-25T08:05:27.108Z,-0.48
2018-02-25T08:06:16.166Z,-0.46
2018-02-25T08:07:05.238Z,-0.36
2018-02-25T08:07:54.290Z,-0.21
2018-02-25T08:08:43.392Z,-0.13
2018-02-25T08:09:32.447Z,-0.31
2018-02-25T08:10:21.663Z,-0.36
2018-02-25T08:11:10.722Z,-0.30
2018-02-25T08:11:59.860Z,-0.35
2018-02-25T08:12:48.926Z,-0.38
2018-02-25T08:13:38.035Z,-0.21
2018-02-25T08:14:27.109Z,-0.20
2018-02-25T08:15:16.212Z,-0.25
2018-02-25T08:16:05.331Z,-0.10
2018-02-25T08:16:54.454Z,-0.12
2018-02-25T08:17:43.536Z,-0.08
2018-02-25T08:18:32.605Z,-0.17
2018-02-25T08:19:21.769Z,-0.22
2018-02-25T08:20:10.994Z,-0.32
2018-02-25T08:21:00.060Z,-0.24
2018-02-25T08:21:49.110Z,-0.10
2018-02-25T08:22:38.187Z,-0.14
2018-02-25T08:23:27.281Z,-0.14
2018-02-25T08:24:16.366Z,-0.06
2018-02-25T08:25:05.431Z,-0.03
2018-02-25T08:25:54.531Z,-0.05
2018-02-25T08:26:43.599Z,-0.09
2018-02-25T08:27:32.690Z,-0.17
2018-02-25T08:28:21.755Z,-0.13
2018-02-25T08:29:10.864Z,-0.13
2018-02-25T08:29:59.933Z,-0.12
2018-02-25T08:30:48.978Z,-0.13
2018-02-25T08:31:38.070Z,-0.09
2018-02-25T08:32:27.129Z,-0.09
2018-02-25T08:33:16.209Z,-0.17
2018-02-25T08:34:05.303Z,0.00
2018-02-25T08:34:54.369Z,-0.22
2018-02-25T08:35:43.418Z,-0.06
2018-02-25T08:36:32.461Z,0.08
2018-02-25T08:37:21.664Z,0.06
2018-02-25T08:38:10.707Z,0.07
2018-02-25T08:38:59.772Z,-0.02
2018-02-25T08:39:48.837Z,0.17
2018-02-25T08:40:37.973Z,0.38
2018-02-25T08:41:27.100Z,0.55
2018-02-25T08:42:16.156Z,0.45
2018-02-25T08:43:05.242Z,0.19
2018-02-25T08:43:54.291Z,0.25
2018-02-25T08:44:43.343Z,0.27
2018-02-25T08:45:34.838Z,0.15
2018-02-25T08:46:23.890Z,0.18
2018-02-25T08:47:12.938Z,0.23
2018-02-25T08:48:02.022Z,0.00
2018-02-25T08:48:51.297Z,-0.13
2018-02-25T08:49:40.374Z,-0.37
2018-02-25T08:50:29.434Z,-0.18
2018-02-25T08:51:18.509Z,-0.22
2018-02-25T08:52:07.628Z,-0.29
2018-02-25T08:52:56.695Z,-0.31
2018-02-25T08:53:45.751Z,-0.41
2018-02-25T08:54:34.881Z,-0.43
2018-02-25T08:55:23.971Z,-0.41
2018-02-25T08:56:13.133Z,-0.40
2018-02-25T08:57:02.234Z,-0.35
2018-02-25T08:57:51.306Z,-0.26
2018-02-25T08:58:40.358Z,-0.52
2018-02-25T08:59:29.428Z,-0.32
2018-02-25T09:00:18.479Z,-0.33
2018-02-25T09:01:07.530Z,-0.15
2018-02-25T09:01:56.660Z,-0.06
2018-02-25T09:02:45.841Z,-0.41
2018-02-25T09:03:34.918Z,-0.23
2018-02-25T09:04:23.990Z,-0.36
2018-02-25T09:05:13.053Z,-0.64
2018-02-25T09:06:02.100Z,-0.54
2018-02-25T09:06:51.176Z,-0.67
2018-02-25T09:07:40.250Z,-0.46
2018-02-25T09:08:29.562Z,-0.37
2018-02-25T09:09:18.624Z,-0.52
2018-02-25T09:10:07.678Z,-0.35
2018-02-25T09:10:56.938Z,-0.38
2018-02-25T09:11:45.993Z,-0.51
2018-02-25T09:12:35.080Z,-0.38
2018-02-25T09:13:24.140Z,-0.38
2018-02-25T09:14:13.256Z,-0.42
2018-02-25T09:15:02.327Z,-0.20
2018-02-25T09:15:51.430Z,-0.08
2018-02-25T09:16:40.476Z,-0.04
2018-02-25T09:17:29.518Z,0.25
2018-02-25T09:18:18.584Z,-0.04
2018-02-25T09:19:07.646Z,-0.01
2018-02-25T09:19:56.841Z,0.05
2018-02-25T09:20:45.896Z,0.21
2018-02-25T09:21:36.012Z,0.39
2018-02-25T09:22:25.074Z,0.38
2018-02-25T09:23:14.951Z,0.42
2018-02-25T09:24:04.047Z,0.36
2018-02-25T09:24:59.075Z,0.34
2018-02-25T09:25:48.182Z,0.52
2018-02-25T09:26:38.998Z,0.47
2018-02-25T09:27:30.092Z,0.34
2018-02-25T09:28:20.453Z,0.20
2018-02-25T09:29:11.659Z,0.20
2018-02-25T09:30:02.950Z,0.22
2018-02-25T09:30:53.040Z,0.13
2018-02-25T09:31:42.124Z,0.15
2018-02-25T09:32:34.324Z,0.22
2018-02-25T09:33:23.414Z,0.36
2018-02-25T09:34:13.332Z,0.55
2018-02-25T09:35:02.390Z,0.62
2018-02-25T09:35:51.559Z,0.66
2018-02-25T09:36:40.627Z,0.53
2018-02-25T09:37:29.664Z,0.29
2018-02-25T09:38:18.710Z,0.26
2018-02-25T09:39:08.589Z,0.41
2018-02-25T09:39:58.950Z,0.47
2018-02-25T09:40:48.784Z,0.30
2018-02-25T09:41:38.925Z,0.16
2018-02-25T09:42:28.070Z,-0.05
2018-02-25T09:43:17.149Z,-0.09
2018-02-25T09:44:06.224Z,0.18
2018-02-25T09:44:56.025Z,0.32
2018-02-25T09:45:45.265Z,0.29
2018-02-25T09:46:34.401Z,0.33
2018-02-25T09:47:23.565Z,0.44
2018-02-25T09:48:12.621Z,0.40
2018-02-25T09:49:01.707Z,0.33
2018-02-25T09:49:50.762Z,0.46
2018-02-25T09:50:39.843Z,0.49
2018-02-25T09:51:28.923Z,0.62
2018-02-25T09:52:18.104Z,0.64
2018-02-25T09:53:07.161Z,0.61
2018-02-25T09:53:57.115Z,0.49
2018-02-25T10:07:37.488Z,0.99
2018-02-25T10:08:26.547Z,0.79
2018-02-25T10:09:15.599Z,0.88
2018-02-25T10:10:04.780Z,0.80
2018-02-25T10:10:53.943Z,0.80
2018-02-25T10:11:42.996Z,0.72
2018-02-25T10:12:32.076Z,0.76
2018-02-25T10:13:21.135Z,0.86
2018-02-25T10:14:10.350Z,1.01
2018-02-25T10:14:59.401Z,0.84
2018-02-25T10:15:48.535Z,1.00
2018-02-25T10:16:37.583Z,1.05
2018-02-25T10:17:26.642Z,1.22
2018-02-25T10:18:15.704Z,1.41
2018-02-25T10:19:04.780Z,1.31
2018-02-25T10:19:53.841Z,1.39
2018-02-25T10:20:42.905Z,1.15
2018-02-25T10:21:32.046Z,1.19
2018-02-25T10:22:21.099Z,1.24
2018-02-25T10:23:10.150Z,1.34
2018-02-25T10:23:59.202Z,1.44
2018-02-25T10:24:48.269Z,1.50
2018-02-25T10:25:37.320Z,1.51
2018-02-25T10:26:26.365Z,1.48
2018-02-25T10:27:15.539Z,1.60
2018-02-25T10:28:04.594Z,1.63
2018-02-25T10:28:53.637Z,1.71
2018-02-25T10:29:42.690Z,1.82
2018-02-25T10:30:31.741Z,1.95
2018-02-25T10:31:20.817Z,2.06
2018-02-25T10:32:09.890Z,1.85
2018-02-25T10:32:58.997Z,1.92
2018-02-25T10:33:48.058Z,1.90
2018-02-25T10:34:37.126Z,1.92
2018-02-25T10:35:26.230Z,1.95
2018-02-25T10:36:15.393Z,1.80
2018-02-25T10:37:04.473Z,1.88
2018-02-25T10:37:53.519Z,1.93
2018-02-25T10:38:42.667Z,1.91
2018-02-25T10:39:31.692Z,1.87
2018-02-25T10:40:20.758Z,1.83
2018-02-25T10:41:09.818Z,1.89
2018-02-25T10:41:58.883Z,1.93
2018-02-25T10:42:47.935Z,1.97
2018-02-25T10:43:36.988Z,1.96
2018-02-25T10:44:26.274Z,2.05
2018-02-25T10:45:15.333Z,2.17
2018-02-25T10:46:04.376Z,2.33
2018-02-25T10:46:53.471Z,2.42
2018-02-25T10:47:42.506Z,2.39
2018-02-25T10:48:31.564Z,2.45
2018-02-25T10:49:21.290Z,2.33
2018-02-25T10:50:10.344Z,2.26
2018-02-25T10:50:59.418Z,2.32
2018-02-25T10:51:48.562Z,2.36
2018-02-25T10:52:37.632Z,2.44
2018-02-25T10:53:26.674Z,2.53
2018-02-25T10:54:15.717Z,2.65
2018-02-25T10:55:04.788Z,2.51
2018-02-25T10:55:53.850Z,2.33
2018-02-25T10:56:42.951Z,1.98
2018-02-25T10:57:32.069Z,2.07
2018-02-25T10:58:21.125Z,2.13
2018-02-25T10:59:10.289Z,2.29
2018-02-25T10:59:59.352Z,2.09
2018-02-25T11:00:53.939Z,2.29
2018-02-25T11:01:42.997Z,2.46